sensor_id;sensor_type;location;lat;lon;timestamp;P1;durP1;ratioP1;P2;durP2;ratioP2
8490;SDS011;4282;49.986;7.938;2023-06-14T00:00:38;13.52;;;4.63;;
8490;SDS011;4282;49.986;7.938;2023-06-14T00:03:08;5.70;;;4.85;;
8490;SDS011;4282;49.986;7.938;2023-06-14T00:05:37;5.32;;;4.32;;
8490;SDS011;4282;49.986;7.938;2023-06-14T00:08:08;5.97;;;4.10;;
8490;SDS011;4282;49.986;7.938;2023-06-14T00:10:36;4.75;;;4.20;;
8490;SDS011;4282;49.986;7.938;2023-06-14T00:13:06;6.50;;;4.22;;
8490;SDS011;4282;49.986;7.938;2023-06-14T00:15:37;4.82;;;4.13;;
8490;SDS011;4282;49.986;7.938;2023-06-14T00:18:06;4.75;;;4.22;;
8490;SDS011;4282;49.986;7.938;2023-06-14T00:20:36;4.10;;;3.80;;
8490;SDS011;4282;49.986;7.938;2023-06-14T00:23:07;5.18;;;4.53;;
8490;SDS011;4282;49.986;7.938;2023-06-14T00:25:35;5.40;;;4.20;;
8490;SDS011;4282;49.986;7.938;2023-06-14T00:28:04;10.20;;;4.47;;
8490;SDS011;4282;49.986;7.938;2023-06-14T00:30:32;4.70;;;4.30;;
8490;SDS011;4282;49.986;7.938;2023-06-14T00:33:03;6.10;;;3.90;;
8490;SDS011;4282;49.986;7.938;2023-06-14T00:35:31;4.82;;;4.40;;
8490;SDS011;4282;49.986;7.938;2023-06-14T00:37:59;5.65;;;4.20;;
8490;SDS011;4282;49.986;7.938;2023-06-14T00:40:27;4.82;;;4.35;;
8490;SDS011;4282;49.986;7.938;2023-06-14T00:42:56;4.90;;;4.45;;
8490;SDS011;4282;49.986;7.938;2023-06-14T00:45:24;5.65;;;4.72;;
8490;SDS011;4282;49.986;7.938;2023-06-14T00:47:52;5.05;;;4.10;;
8490;SDS011;4282;49.986;7.938;2023-06-14T00:50:23;6.53;;;4.80;;
8490;SDS011;4282;49.986;7.938;2023-06-14T00:52:52;5.20;;;4.32;;
8490;SDS011;4282;49.986;7.938;2023-06-14T00:55:20;7.32;;;4.65;;
8490;SDS011;4282;49.986;7.938;2023-06-14T00:57:48;4.25;;;3.85;;
8490;SDS011;4282;49.986;7.938;2023-06-14T01:00:17;7.25;;;4.20;;
8490;SDS011;4282;49.986;7.938;2023-06-14T01:02:45;5.93;;;3.83;;
8490;SDS011;4282;49.986;7.938;2023-06-14T01:05:14;5.18;;;4.38;;
8490;SDS011;4282;49.986;7.938;2023-06-14T01:07:49;7.40;;;4.28;;
8490;SDS011;4282;49.986;7.938;2023-06-14T01:10:26;4.90;;;4.30;;
8490;SDS011;4282;49.986;7.938;2023-06-14T01:13:02;5.65;;;4.00;;
8490;SDS011;4282;49.986;7.938;2023-06-14T01:15:35;4.93;;;4.15;;
8490;SDS011;4282;49.986;7.938;2023-06-14T01:18:04;7.97;;;4.00;;
8490;SDS011;4282;49.986;7.938;2023-06-14T01:20:33;5.43;;;4.65;;
8490;SDS011;4282;49.986;7.938;2023-06-14T01:23:06;4.80;;;4.30;;
8490;SDS011;4282;49.986;7.938;2023-06-14T01:25:34;5.15;;;4.05;;
8490;SDS011;4282;49.986;7.938;2023-06-14T01:28:04;6.03;;;4.45;;
8490;SDS011;4282;49.986;7.938;2023-06-14T01:30:35;7.53;;;3.95;;
8490;SDS011;4282;49.986;7.938;2023-06-14T01:33:04;5.78;;;4.60;;
8490;SDS011;4282;49.986;7.938;2023-06-14T01:35:33;5.60;;;4.80;;
8490;SDS011;4282;49.986;7.938;2023-06-14T01:38:01;4.65;;;4.25;;
8490;SDS011;4282;49.986;7.938;2023-06-14T01:40:33;5.55;;;4.43;;
8490;SDS011;4282;49.986;7.938;2023-06-14T01:43:02;5.38;;;4.55;;
8490;SDS011;4282;49.986;7.938;2023-06-14T01:45:31;5.47;;;4.07;;
8490;SDS011;4282;49.986;7.938;2023-06-14T01:47:59;4.95;;;4.43;;
8490;SDS011;4282;49.986;7.938;2023-06-14T01:50:28;4.60;;;4.20;;
8490;SDS011;4282;49.986;7.938;2023-06-14T01:52:57;7.28;;;4.43;;
8490;SDS011;4282;49.986;7.938;2023-06-14T01:55:26;4.47;;;4.07;;
8490;SDS011;4282;49.986;7.938;2023-06-14T01:57:57;5.80;;;4.35;;
8490;SDS011;4282;49.986;7.938;2023-06-14T02:00:25;5.13;;;4.50;;
8490;SDS011;4282;49.986;7.938;2023-06-14T02:02:54;5.43;;;4.55;;
8490;SDS011;4282;49.986;7.938;2023-06-14T02:05:22;5.28;;;4.45;;
8490;SDS011;4282;49.986;7.938;2023-06-14T02:07:51;4.60;;;4.20;;
8490;SDS011;4282;49.986;7.938;2023-06-14T02:10:20;5.10;;;4.13;;
8490;SDS011;4282;49.986;7.938;2023-06-14T02:12:48;9.80;;;4.93;;
8490;SDS011;4282;49.986;7.938;2023-06-14T02:15:19;5.95;;;4.28;;
8490;SDS011;4282;49.986;7.938;2023-06-14T02:17:48;4.55;;;4.13;;
8490;SDS011;4282;49.986;7.938;2023-06-14T02:20:17;6.47;;;4.55;;
8490;SDS011;4282;49.986;7.938;2023-06-14T02:22:45;5.80;;;4.32;;
8490;SDS011;4282;49.986;7.938;2023-06-14T02:25:13;6.82;;;4.22;;
8490;SDS011;4282;49.986;7.938;2023-06-14T02:27:42;6.00;;;4.57;;
8490;SDS011;4282;49.986;7.938;2023-06-14T02:30:11;7.38;;;4.50;;
8490;SDS011;4282;49.986;7.938;2023-06-14T02:32:43;5.18;;;4.53;;
8490;SDS011;4282;49.986;7.938;2023-06-14T02:35:13;5.20;;;4.22;;
8490;SDS011;4282;49.986;7.938;2023-06-14T02:37:41;4.78;;;3.90;;
8490;SDS011;4282;49.986;7.938;2023-06-14T02:40:10;5.95;;;4.40;;
8490;SDS011;4282;49.986;7.938;2023-06-14T02:42:39;5.03;;;4.22;;
8490;SDS011;4282;49.986;7.938;2023-06-14T02:45:08;5.07;;;4.43;;
8490;SDS011;4282;49.986;7.938;2023-06-14T02:47:36;4.70;;;4.30;;
8490;SDS011;4282;49.986;7.938;2023-06-14T02:50:08;4.50;;;4.10;;
8490;SDS011;4282;49.986;7.938;2023-06-14T02:52:36;4.72;;;4.32;;
8490;SDS011;4282;49.986;7.938;2023-06-14T02:55:07;4.75;;;4.25;;
8490;SDS011;4282;49.986;7.938;2023-06-14T02:57:35;4.93;;;3.65;;
8490;SDS011;4282;49.986;7.938;2023-06-14T03:00:04;5.22;;;4.10;;
8490;SDS011;4282;49.986;7.938;2023-06-14T03:02:34;4.85;;;4.45;;
8490;SDS011;4282;49.986;7.938;2023-06-14T03:05:03;4.63;;;4.15;;
8490;SDS011;4282;49.986;7.938;2023-06-14T03:07:34;6.18;;;4.57;;
8490;SDS011;4282;49.986;7.938;2023-06-14T03:10:06;6.10;;;4.45;;
8490;SDS011;4282;49.986;7.938;2023-06-14T03:12:35;5.68;;;4.35;;
8490;SDS011;4282;49.986;7.938;2023-06-14T03:15:04;6.45;;;4.53;;
8490;SDS011;4282;49.986;7.938;2023-06-14T03:17:32;5.07;;;4.65;;
8490;SDS011;4282;49.986;7.938;2023-06-14T03:20:04;5.90;;;4.03;;
8490;SDS011;4282;49.986;7.938;2023-06-14T03:22:36;4.70;;;4.30;;
8490;SDS011;4282;49.986;7.938;2023-06-14T03:25:05;5.45;;;4.00;;
8490;SDS011;4282;49.986;7.938;2023-06-14T03:27:35;5.70;;;4.30;;
8490;SDS011;4282;49.986;7.938;2023-06-14T03:30:04;6.55;;;4.53;;
8490;SDS011;4282;49.986;7.938;2023-06-14T03:32:33;6.63;;;4.22;;
8490;SDS011;4282;49.986;7.938;2023-06-14T03:35:01;5.80;;;4.20;;
8490;SDS011;4282;49.986;7.938;2023-06-14T03:37:30;4.80;;;4.28;;
8490;SDS011;4282;49.986;7.938;2023-06-14T03:40:01;5.05;;;3.90;;
8490;SDS011;4282;49.986;7.938;2023-06-14T03:42:32;5.45;;;4.35;;
8490;SDS011;4282;49.986;7.938;2023-06-14T03:45:00;5.10;;;4.25;;
8490;SDS011;4282;49.986;7.938;2023-06-14T03:47:28;4.88;;;4.20;;
8490;SDS011;4282;49.986;7.938;2023-06-14T03:49:56;4.57;;;4.07;;
8490;SDS011;4282;49.986;7.938;2023-06-14T03:52:25;5.88;;;4.57;;
8490;SDS011;4282;49.986;7.938;2023-06-14T03:54:54;4.20;;;3.72;;
8490;SDS011;4282;49.986;7.938;2023-06-14T03:57:24;6.32;;;3.78;;
8490;SDS011;4282;49.986;7.938;2023-06-14T03:59:53;5.03;;;4.30;;
8490;SDS011;4282;49.986;7.938;2023-06-14T04:02:21;5.18;;;4.55;;
8490;SDS011;4282;49.986;7.938;2023-06-14T04:04:50;5.72;;;4.15;;
8490;SDS011;4282;49.986;7.938;2023-06-14T04:07:19;4.85;;;4.38;;
8490;SDS011;4282;49.986;7.938;2023-06-14T04:09:48;6.65;;;4.03;;
8490;SDS011;4282;49.986;7.938;2023-06-14T04:12:16;7.35;;;4.35;;
8490;SDS011;4282;49.986;7.938;2023-06-14T04:14:47;7.47;;;4.22;;
8490;SDS011;4282;49.986;7.938;2023-06-14T04:17:16;4.97;;;4.35;;
8490;SDS011;4282;49.986;7.938;2023-06-14T04:19:44;7.35;;;4.30;;
8490;SDS011;4282;49.986;7.938;2023-06-14T04:22:12;4.55;;;4.07;;
8490;SDS011;4282;49.986;7.938;2023-06-14T04:24:41;6.38;;;4.10;;
8490;SDS011;4282;49.986;7.938;2023-06-14T04:27:10;5.70;;;4.45;;
8490;SDS011;4282;49.986;7.938;2023-06-14T04:29:38;5.95;;;4.50;;
8490;SDS011;4282;49.986;7.938;2023-06-14T04:32:10;4.50;;;4.10;;
8490;SDS011;4282;49.986;7.938;2023-06-14T04:34:39;5.85;;;4.38;;
8490;SDS011;4282;49.986;7.938;2023-06-14T04:37:07;4.35;;;3.95;;
8490;SDS011;4282;49.986;7.938;2023-06-14T04:39:36;4.18;;;3.78;;
8490;SDS011;4282;49.986;7.938;2023-06-14T04:42:05;5.13;;;4.15;;
8490;SDS011;4282;49.986;7.938;2023-06-14T04:44:33;4.70;;;4.20;;
8490;SDS011;4282;49.986;7.938;2023-06-14T04:47:05;4.88;;;3.72;;
8490;SDS011;4282;49.986;7.938;2023-06-14T04:49:36;4.93;;;3.97;;
8490;SDS011;4282;49.986;7.938;2023-06-14T04:52:05;4.57;;;3.92;;
8490;SDS011;4282;49.986;7.938;2023-06-14T04:54:35;6.32;;;4.45;;
8490;SDS011;4282;49.986;7.938;2023-06-14T04:57:03;5.38;;;4.55;;
8490;SDS011;4282;49.986;7.938;2023-06-14T04:59:32;8.32;;;4.50;;
8490;SDS011;4282;49.986;7.938;2023-06-14T05:02:01;6.63;;;5.13;;
8490;SDS011;4282;49.986;7.938;2023-06-14T05:04:30;5.55;;;4.20;;
8490;SDS011;4282;49.986;7.938;2023-06-14T05:07:01;4.60;;;4.10;;
8490;SDS011;4282;49.986;7.938;2023-06-14T05:09:31;5.28;;;4.50;;
8490;SDS011;4282;49.986;7.938;2023-06-14T05:11:59;5.72;;;4.10;;
8490;SDS011;4282;49.986;7.938;2023-06-14T05:14:28;4.60;;;4.18;;
8490;SDS011;4282;49.986;7.938;2023-06-14T05:16:56;6.30;;;4.70;;
8490;SDS011;4282;49.986;7.938;2023-06-14T05:19:24;5.13;;;4.47;;
8490;SDS011;4282;49.986;7.938;2023-06-14T05:21:53;6.28;;;5.15;;
8490;SDS011;4282;49.986;7.938;2023-06-14T05:24:24;6.05;;;4.35;;
8490;SDS011;4282;49.986;7.938;2023-06-14T05:26:54;5.63;;;4.20;;
8490;SDS011;4282;49.986;7.938;2023-06-14T05:29:22;5.80;;;4.68;;
8490;SDS011;4282;49.986;7.938;2023-06-14T05:31:51;5.65;;;4.50;;
8490;SDS011;4282;49.986;7.938;2023-06-14T05:34:19;5.25;;;4.53;;
8490;SDS011;4282;49.986;7.938;2023-06-14T05:36:47;4.43;;;4.03;;
8490;SDS011;4282;49.986;7.938;2023-06-14T05:39:16;5.25;;;4.68;;
8490;SDS011;4282;49.986;7.938;2023-06-14T05:41:47;5.05;;;4.57;;
8490;SDS011;4282;49.986;7.938;2023-06-14T05:44:15;7.07;;;4.30;;
8490;SDS011;4282;49.986;7.938;2023-06-14T05:46:43;5.70;;;4.75;;
8490;SDS011;4282;49.986;7.938;2023-06-14T05:49:11;6.03;;;4.55;;
8490;SDS011;4282;49.986;7.938;2023-06-14T05:51:40;7.00;;;5.35;;
8490;SDS011;4282;49.986;7.938;2023-06-14T05:54:08;6.20;;;4.30;;
8490;SDS011;4282;49.986;7.938;2023-06-14T05:56:36;7.85;;;4.15;;
8490;SDS011;4282;49.986;7.938;2023-06-14T05:59:07;7.15;;;4.07;;
8490;SDS011;4282;49.986;7.938;2023-06-14T06:01:35;6.03;;;4.20;;
8490;SDS011;4282;49.986;7.938;2023-06-14T06:04:05;6.35;;;4.70;;
8490;SDS011;4282;49.986;7.938;2023-06-14T06:06:33;8.38;;;4.38;;
8490;SDS011;4282;49.986;7.938;2023-06-14T06:09:01;4.38;;;3.97;;
8490;SDS011;4282;49.986;7.938;2023-06-14T06:11:30;4.78;;;4.28;;
8490;SDS011;4282;49.986;7.938;2023-06-14T06:13:58;5.03;;;4.07;;
8490;SDS011;4282;49.986;7.938;2023-06-14T06:16:29;3.75;;;3.40;;
8490;SDS011;4282;49.986;7.938;2023-06-14T06:18:57;5.38;;;4.10;;
8490;SDS011;4282;49.986;7.938;2023-06-14T06:21:26;9.23;;;4.95;;
8490;SDS011;4282;49.986;7.938;2023-06-14T06:23:54;5.43;;;3.70;;
8490;SDS011;4282;49.986;7.938;2023-06-14T06:26:22;8.43;;;4.32;;
8490;SDS011;4282;49.986;7.938;2023-06-14T06:28:51;4.10;;;3.25;;
8490;SDS011;4282;49.986;7.938;2023-06-14T06:31:20;4.38;;;3.58;;
8490;SDS011;4282;49.986;7.938;2023-06-14T06:33:51;11.63;;;3.35;;
8490;SDS011;4282;49.986;7.938;2023-06-14T06:36:20;4.60;;;3.65;;
8490;SDS011;4282;49.986;7.938;2023-06-14T06:38:49;7.00;;;3.17;;
8490;SDS011;4282;49.986;7.938;2023-06-14T06:41:18;5.78;;;3.80;;
8490;SDS011;4282;49.986;7.938;2023-06-14T06:43:46;4.72;;;3.20;;
8490;SDS011;4282;49.986;7.938;2023-06-14T06:46:14;3.80;;;3.20;;
8490;SDS011;4282;49.986;7.938;2023-06-14T06:48:44;3.60;;;2.92;;
8490;SDS011;4282;49.986;7.938;2023-06-14T06:51:14;4.75;;;3.20;;
8490;SDS011;4282;49.986;7.938;2023-06-14T06:53:43;4.20;;;2.80;;
8490;SDS011;4282;49.986;7.938;2023-06-14T06:56:11;5.45;;;3.10;;
8490;SDS011;4282;49.986;7.938;2023-06-14T06:58:40;4.85;;;2.95;;
8490;SDS011;4282;49.986;7.938;2023-06-14T07:01:08;3.40;;;2.60;;
8490;SDS011;4282;49.986;7.938;2023-06-14T07:03:36;4.28;;;2.90;;
8490;SDS011;4282;49.986;7.938;2023-06-14T07:06:05;4.03;;;2.97;;
8490;SDS011;4282;49.986;7.938;2023-06-14T07:08:35;4.70;;;2.60;;
8490;SDS011;4282;49.986;7.938;2023-06-14T07:11:04;3.05;;;2.75;;
8490;SDS011;4282;49.986;7.938;2023-06-14T07:13:35;3.08;;;2.75;;
8490;SDS011;4282;49.986;7.938;2023-06-14T07:16:03;6.00;;;2.92;;
8490;SDS011;4282;49.986;7.938;2023-06-14T07:18:32;4.97;;;3.03;;
8490;SDS011;4282;49.986;7.938;2023-06-14T07:21:02;5.28;;;2.63;;
8490;SDS011;4282;49.986;7.938;2023-06-14T07:23:31;5.07;;;2.60;;
8490;SDS011;4282;49.986;7.938;2023-06-14T07:26:01;3.30;;;2.70;;
8490;SDS011;4282;49.986;7.938;2023-06-14T07:28:30;2.67;;;2.45;;
8490;SDS011;4282;49.986;7.938;2023-06-14T07:30:58;3.08;;;2.45;;
8490;SDS011;4282;49.986;7.938;2023-06-14T07:33:26;2.70;;;2.30;;
8490;SDS011;4282;49.986;7.938;2023-06-14T07:35:54;3.35;;;2.65;;
8490;SDS011;4282;49.986;7.938;2023-06-14T07:38:23;2.95;;;2.50;;
8490;SDS011;4282;49.986;7.938;2023-06-14T07:40:51;2.13;;;1.83;;
8490;SDS011;4282;49.986;7.938;2023-06-14T07:43:22;4.38;;;2.50;;
8490;SDS011;4282;49.986;7.938;2023-06-14T07:45:50;4.70;;;2.80;;
8490;SDS011;4282;49.986;7.938;2023-06-14T07:48:18;3.42;;;2.80;;
8490;SDS011;4282;49.986;7.938;2023-06-14T07:50:46;6.70;;;2.50;;
8490;SDS011;4282;49.986;7.938;2023-06-14T07:53:15;8.15;;;2.88;;
8490;SDS011;4282;49.986;7.938;2023-06-14T07:55:43;5.40;;;2.67;;
8490;SDS011;4282;49.986;7.938;2023-06-14T07:58:12;2.58;;;1.88;;
8490;SDS011;4282;49.986;7.938;2023-06-14T08:00:43;2.00;;;1.88;;
8490;SDS011;4282;49.986;7.938;2023-06-14T08:03:12;4.78;;;2.50;;
8490;SDS011;4282;49.986;7.938;2023-06-14T08:05:40;2.83;;;2.47;;
8490;SDS011;4282;49.986;7.938;2023-06-14T08:08:09;2.85;;;2.45;;
8490;SDS011;4282;49.986;7.938;2023-06-14T08:10:37;2.97;;;2.13;;
8490;SDS011;4282;49.986;7.938;2023-06-14T08:13:06;2.80;;;2.35;;
8490;SDS011;4282;49.986;7.938;2023-06-14T08:15:34;2.70;;;1.77;;
8490;SDS011;4282;49.986;7.938;2023-06-14T08:18:05;3.63;;;2.40;;
8490;SDS011;4282;49.986;7.938;2023-06-14T08:20:34;3.22;;;2.30;;
8490;SDS011;4282;49.986;7.938;2023-06-14T08:23:02;3.03;;;2.05;;
8490;SDS011;4282;49.986;7.938;2023-06-14T08:25:31;24.38;;;3.78;;
8490;SDS011;4282;49.986;7.938;2023-06-14T08:27:59;5.72;;;1.95;;
8490;SDS011;4282;49.986;7.938;2023-06-14T08:30:28;4.55;;;2.40;;
8490;SDS011;4282;49.986;7.938;2023-06-14T08:32:56;2.72;;;2.25;;
8490;SDS011;4282;49.986;7.938;2023-06-14T08:35:27;4.25;;;2.53;;
8490;SDS011;4282;49.986;7.938;2023-06-14T08:37:55;5.45;;;2.25;;
8490;SDS011;4282;49.986;7.938;2023-06-14T08:40:23;4.25;;;1.83;;
8490;SDS011;4282;49.986;7.938;2023-06-14T08:42:53;2.65;;;2.40;;
8490;SDS011;4282;49.986;7.938;2023-06-14T08:45:23;2.97;;;2.13;;
8490;SDS011;4282;49.986;7.938;2023-06-14T08:47:53;3.55;;;2.15;;
8490;SDS011;4282;49.986;7.938;2023-06-14T08:50:22;5.28;;;2.20;;
8490;SDS011;4282;49.986;7.938;2023-06-14T08:52:54;5.65;;;2.30;;
8490;SDS011;4282;49.986;7.938;2023-06-14T08:55:25;3.80;;;2.17;;
8490;SDS011;4282;49.986;7.938;2023-06-14T08:57:55;30.58;;;4.95;;
8490;SDS011;4282;49.986;7.938;2023-06-14T09:00:25;8.43;;;2.90;;
8490;SDS011;4282;49.986;7.938;2023-06-14T09:02:55;4.32;;;2.28;;
8490;SDS011;4282;49.986;7.938;2023-06-14T09:05:24;4.95;;;2.10;;
8490;SDS011;4282;49.986;7.938;2023-06-14T09:07:56;2.60;;;2.10;;
8490;SDS011;4282;49.986;7.938;2023-06-14T09:10:25;1.92;;;1.75;;
8490;SDS011;4282;49.986;7.938;2023-06-14T09:12:55;2.90;;;1.90;;
8490;SDS011;4282;49.986;7.938;2023-06-14T09:15:25;2.33;;;2.10;;
8490;SDS011;4282;49.986;7.938;2023-06-14T09:17:53;4.88;;;2.70;;
8490;SDS011;4282;49.986;7.938;2023-06-14T09:20:23;5.55;;;2.10;;
8490;SDS011;4282;49.986;7.938;2023-06-14T09:22:53;5.05;;;2.20;;
8490;SDS011;4282;49.986;7.938;2023-06-14T09:25:24;5.07;;;2.47;;
8490;SDS011;4282;49.986;7.938;2023-06-14T09:27:52;1.90;;;1.70;;
8490;SDS011;4282;49.986;7.938;2023-06-14T09:30:20;1.95;;;1.30;;
8490;SDS011;4282;49.986;7.938;2023-06-14T09:32:49;1.88;;;1.30;;
8490;SDS011;4282;49.986;7.938;2023-06-14T09:35:18;2.85;;;1.90;;
8490;SDS011;4282;49.986;7.938;2023-06-14T09:37:46;2.08;;;1.70;;
8490;SDS011;4282;49.986;7.938;2023-06-14T09:40:18;2.95;;;1.70;;
8490;SDS011;4282;49.986;7.938;2023-06-14T09:42:48;3.08;;;2.00;;
8490;SDS011;4282;49.986;7.938;2023-06-14T09:45:16;2.08;;;1.50;;
8490;SDS011;4282;49.986;7.938;2023-06-14T09:47:46;2.67;;;1.50;;
8490;SDS011;4282;49.986;7.938;2023-06-14T09:50:16;2.30;;;2.10;;
8490;SDS011;4282;49.986;7.938;2023-06-14T09:52:44;2.15;;;1.95;;
8490;SDS011;4282;49.986;7.938;2023-06-14T09:55:14;3.58;;;1.73;;
8490;SDS011;4282;49.986;7.938;2023-06-14T09:57:45;2.38;;;1.88;;
8490;SDS011;4282;49.986;7.938;2023-06-14T10:00:15;5.22;;;1.60;;
8490;SDS011;4282;49.986;7.938;2023-06-14T10:02:46;3.47;;;1.50;;
8490;SDS011;4282;49.986;7.938;2023-06-14T10:05:17;2.55;;;1.77;;
8490;SDS011;4282;49.986;7.938;2023-06-14T10:07:48;2.25;;;1.42;;
8490;SDS011;4282;49.986;7.938;2023-06-14T10:10:20;2.10;;;1.80;;
8490;SDS011;4282;49.986;7.938;2023-06-14T10:12:51;1.77;;;1.50;;
8490;SDS011;4282;49.986;7.938;2023-06-14T10:15:20;2.38;;;1.70;;
8490;SDS011;4282;49.986;7.938;2023-06-14T10:17:52;4.40;;;1.70;;
8490;SDS011;4282;49.986;7.938;2023-06-14T10:20:26;1.88;;;1.65;;
8490;SDS011;4282;49.986;7.938;2023-06-14T10:23:00;3.08;;;1.73;;
8490;SDS011;4282;49.986;7.938;2023-06-14T10:25:31;4.10;;;1.50;;
8490;SDS011;4282;49.986;7.938;2023-06-14T10:28:06;1.52;;;1.33;;
8490;SDS011;4282;49.986;7.938;2023-06-14T10:33:30;2.50;;;1.65;;
8490;SDS011;4282;49.986;7.938;2023-06-14T10:36:08;2.17;;;1.70;;
8490;SDS011;4282;49.986;7.938;2023-06-14T10:38:37;7.22;;;6.63;;
8490;SDS011;4282;49.986;7.938;2023-06-14T10:41:06;1.88;;;1.67;;
8490;SDS011;4282;49.986;7.938;2023-06-14T10:43:37;3.20;;;1.48;;
8490;SDS011;4282;49.986;7.938;2023-06-14T10:46:13;2.03;;;1.60;;
8490;SDS011;4282;49.986;7.938;2023-06-14T10:48:42;3.28;;;1.73;;
8490;SDS011;4282;49.986;7.938;2023-06-14T10:51:19;4.43;;;1.60;;
8490;SDS011;4282;49.986;7.938;2023-06-14T10:53:48;1.92;;;1.70;;
8490;SDS011;4282;49.986;7.938;2023-06-14T10:56:24;2.17;;;1.50;;
8490;SDS011;4282;49.986;7.938;2023-06-14T10:58:57;3.53;;;1.55;;
8490;SDS011;4282;49.986;7.938;2023-06-14T11:01:32;2.55;;;1.52;;
8490;SDS011;4282;49.986;7.938;2023-06-14T11:04:08;2.33;;;1.55;;
8490;SDS011;4282;49.986;7.938;2023-06-14T11:06:47;1.70;;;1.30;;
8490;SDS011;4282;49.986;7.938;2023-06-14T11:12:10;3.60;;;1.60;;
8490;SDS011;4282;49.986;7.938;2023-06-14T11:14:41;3.85;;;1.92;;
8490;SDS011;4282;49.986;7.938;2023-06-14T11:17:11;4.78;;;1.63;;
8490;SDS011;4282;49.986;7.938;2023-06-14T11:19:40;3.08;;;1.42;;
8490;SDS011;4282;49.986;7.938;2023-06-14T11:22:08;1.83;;;1.40;;
8490;SDS011;4282;49.986;7.938;2023-06-14T11:24:36;2.88;;;1.40;;
8490;SDS011;4282;49.986;7.938;2023-06-14T11:27:05;6.70;;;2.20;;
8490;SDS011;4282;49.986;7.938;2023-06-14T11:29:34;5.15;;;1.67;;
8490;SDS011;4282;49.986;7.938;2023-06-14T11:32:05;1.67;;;1.50;;
8490;SDS011;4282;49.986;7.938;2023-06-14T11:34:37;2.55;;;1.75;;
8490;SDS011;4282;49.986;7.938;2023-06-14T11:39:50;1.70;;;1.60;;
8490;SDS011;4282;49.986;7.938;2023-06-14T11:42:18;2.63;;;1.73;;
8490;SDS011;4282;49.986;7.938;2023-06-14T11:44:46;1.70;;;1.60;;
8490;SDS011;4282;49.986;7.938;2023-06-14T11:47:25;2.60;;;1.70;;
8490;SDS011;4282;49.986;7.938;2023-06-14T11:49:59;3.55;;;1.90;;
8490;SDS011;4282;49.986;7.938;2023-06-14T11:52:27;4.60;;;1.98;;
8490;SDS011;4282;49.986;7.938;2023-06-14T11:54:56;3.03;;;1.80;;
8490;SDS011;4282;49.986;7.938;2023-06-14T11:57:24;2.75;;;1.58;;
8490;SDS011;4282;49.986;7.938;2023-06-14T11:59:54;2.58;;;1.73;;
8490;SDS011;4282;49.986;7.938;2023-06-14T12:02:25;2.35;;;1.52;;
8490;SDS011;4282;49.986;7.938;2023-06-14T12:04:54;1.98;;;1.60;;
8490;SDS011;4282;49.986;7.938;2023-06-14T12:07:22;1.70;;;1.60;;
8490;SDS011;4282;49.986;7.938;2023-06-14T12:10:03;1.65;;;1.33;;
8490;SDS011;4282;49.986;7.938;2023-06-14T12:12:34;2.58;;;1.80;;
8490;SDS011;4282;49.986;7.938;2023-06-14T12:17:32;2.92;;;1.50;;
8490;SDS011;4282;49.986;7.938;2023-06-14T12:18:33;2.33;;;1.75;;
8490;SDS011;4282;49.986;7.938;2023-06-14T12:21:03;1.70;;;1.60;;
8490;SDS011;4282;49.986;7.938;2023-06-14T12:23:44;2.58;;;1.80;;
8490;SDS011;4282;49.986;7.938;2023-06-14T12:26:14;2.65;;;1.67;;
8490;SDS011;4282;49.986;7.938;2023-06-14T12:28:44;2.20;;;1.38;;
8490;SDS011;4282;49.986;7.938;2023-06-14T12:31:13;2.05;;;1.67;;
8490;SDS011;4282;49.986;7.938;2023-06-14T12:33:46;3.17;;;1.90;;
8490;SDS011;4282;49.986;7.938;2023-06-14T12:36:16;1.80;;;1.67;;
8490;SDS011;4282;49.986;7.938;2023-06-14T12:38:44;2.38;;;2.17;;
8490;SDS011;4282;49.986;7.938;2023-06-14T12:41:13;2.90;;;1.92;;
8490;SDS011;4282;49.986;7.938;2023-06-14T12:43:42;2.45;;;1.45;;
8490;SDS011;4282;49.986;7.938;2023-06-14T12:46:12;2.33;;;1.80;;
8490;SDS011;4282;49.986;7.938;2023-06-14T12:48:40;4.47;;;1.80;;
8490;SDS011;4282;49.986;7.938;2023-06-14T12:51:11;3.33;;;1.95;;
8490;SDS011;4282;49.986;7.938;2023-06-14T12:53:39;2.13;;;1.92;;
8490;SDS011;4282;49.986;7.938;2023-06-14T12:56:09;2.45;;;1.60;;
8490;SDS011;4282;49.986;7.938;2023-06-14T12:58:37;3.88;;;1.58;;
8490;SDS011;4282;49.986;7.938;2023-06-14T13:01:05;2.63;;;1.55;;
8490;SDS011;4282;49.986;7.938;2023-06-14T13:03:33;2.28;;;1.63;;
8490;SDS011;4282;49.986;7.938;2023-06-14T13:06:02;1.67;;;1.58;;
8490;SDS011;4282;49.986;7.938;2023-06-14T13:08:33;1.73;;;1.63;;
8490;SDS011;4282;49.986;7.938;2023-06-14T13:11:01;2.75;;;2.00;;
8490;SDS011;4282;49.986;7.938;2023-06-14T13:13:29;5.22;;;1.58;;
8490;SDS011;4282;49.986;7.938;2023-06-14T13:15:57;2.78;;;1.90;;
8490;SDS011;4282;49.986;7.938;2023-06-14T13:18:26;2.20;;;1.80;;
8490;SDS011;4282;49.986;7.938;2023-06-14T13:20:54;2.10;;;1.90;;
8490;SDS011;4282;49.986;7.938;2023-06-14T13:23:22;2.22;;;1.77;;
8490;SDS011;4282;49.986;7.938;2023-06-14T13:25:53;3.30;;;1.85;;
8490;SDS011;4282;49.986;7.938;2023-06-14T13:28:21;3.00;;;1.92;;
8490;SDS011;4282;49.986;7.938;2023-06-14T13:30:50;2.13;;;1.92;;
8490;SDS011;4282;49.986;7.938;2023-06-14T13:33:18;2.78;;;1.73;;
8490;SDS011;4282;49.986;7.938;2023-06-14T13:35:46;3.90;;;1.50;;
8490;SDS011;4282;49.986;7.938;2023-06-14T13:38:14;1.80;;;1.70;;
8490;SDS011;4282;49.986;7.938;2023-06-14T13:40:43;4.03;;;1.90;;
8490;SDS011;4282;49.986;7.938;2023-06-14T13:43:14;1.92;;;1.80;;
8490;SDS011;4282;49.986;7.938;2023-06-14T13:45:45;4.20;;;2.00;;
8490;SDS011;4282;49.986;7.938;2023-06-14T13:48:13;2.38;;;1.75;;
8490;SDS011;4282;49.986;7.938;2023-06-14T13:50:42;1.45;;;1.35;;
8490;SDS011;4282;49.986;7.938;2023-06-14T13:53:11;3.75;;;2.10;;
8490;SDS011;4282;49.986;7.938;2023-06-14T13:55:39;2.25;;;2.05;;
8490;SDS011;4282;49.986;7.938;2023-06-14T13:58:07;3.25;;;1.90;;
8490;SDS011;4282;49.986;7.938;2023-06-14T14:00:38;2.10;;;1.95;;
8490;SDS011;4282;49.986;7.938;2023-06-14T14:03:06;2.78;;;1.85;;
8490;SDS011;4282;49.986;7.938;2023-06-14T14:05:35;2.55;;;2.10;;
8490;SDS011;4282;49.986;7.938;2023-06-14T14:08:03;2.55;;;1.80;;
8490;SDS011;4282;49.986;7.938;2023-06-14T14:10:32;1.98;;;1.88;;
8490;SDS011;4282;49.986;7.938;2023-06-14T14:13:00;2.20;;;2.00;;
8490;SDS011;4282;49.986;7.938;2023-06-14T14:15:28;2.38;;;1.60;;
8490;SDS011;4282;49.986;7.938;2023-06-14T14:18:02;2.15;;;1.88;;
8490;SDS011;4282;49.986;7.938;2023-06-14T14:20:31;3.83;;;2.08;;
8490;SDS011;4282;49.986;7.938;2023-06-14T14:22:59;4.43;;;1.80;;
8490;SDS011;4282;49.986;7.938;2023-06-14T14:25:28;1.90;;;1.80;;
8490;SDS011;4282;49.986;7.938;2023-06-14T14:27:56;2.60;;;1.80;;
8490;SDS011;4282;49.986;7.938;2023-06-14T14:30:24;2.22;;;2.03;;
8490;SDS011;4282;49.986;7.938;2023-06-14T14:32:53;2.78;;;2.10;;
8490;SDS011;4282;49.986;7.938;2023-06-14T14:35:24;2.53;;;1.95;;
8490;SDS011;4282;49.986;7.938;2023-06-14T14:37:55;2.40;;;2.20;;
8490;SDS011;4282;49.986;7.938;2023-06-14T14:40:23;2.45;;;1.70;;
8490;SDS011;4282;49.986;7.938;2023-06-14T14:42:52;3.35;;;1.40;;
8490;SDS011;4282;49.986;7.938;2023-06-14T14:45:20;2.30;;;1.90;;
8490;SDS011;4282;49.986;7.938;2023-06-14T14:47:48;1.90;;;1.80;;
8490;SDS011;4282;49.986;7.938;2023-06-14T14:50:16;2.92;;;1.85;;
8490;SDS011;4282;49.986;7.938;2023-06-14T14:52:47;2.95;;;1.90;;
8490;SDS011;4282;49.986;7.938;2023-06-14T14:55:16;4.03;;;2.05;;
8490;SDS011;4282;49.986;7.938;2023-06-14T14:57:45;6.07;;;2.40;;
8490;SDS011;4282;49.986;7.938;2023-06-14T15:00:14;3.88;;;2.03;;
8490;SDS011;4282;49.986;7.938;2023-06-14T15:02:42;2.00;;;1.80;;
8490;SDS011;4282;49.986;7.938;2023-06-14T15:05:11;5.75;;;2.10;;
8490;SDS011;4282;49.986;7.938;2023-06-14T15:07:39;2.22;;;1.88;;
8490;SDS011;4282;49.986;7.938;2023-06-14T15:10:10;4.13;;;2.05;;
8490;SDS011;4282;49.986;7.938;2023-06-14T15:12:38;5.95;;;2.33;;
8490;SDS011;4282;49.986;7.938;2023-06-14T15:15:07;2.85;;;1.98;;
8490;SDS011;4282;49.986;7.938;2023-06-14T15:17:36;16.30;;;14.55;;
8490;SDS011;4282;49.986;7.938;2023-06-14T15:20:05;2.95;;;2.25;;
8490;SDS011;4282;49.986;7.938;2023-06-14T15:22:35;2.65;;;2.00;;
8490;SDS011;4282;49.986;7.938;2023-06-14T15:25:03;3.55;;;2.35;;
8490;SDS011;4282;49.986;7.938;2023-06-14T15:27:35;3.08;;;2.70;;
8490;SDS011;4282;49.986;7.938;2023-06-14T15:30:03;2.42;;;2.22;;
8490;SDS011;4282;49.986;7.938;2023-06-14T15:32:32;4.70;;;1.98;;
8490;SDS011;4282;49.986;7.938;2023-06-14T15:35:01;2.60;;;2.05;;
8490;SDS011;4282;49.986;7.938;2023-06-14T15:37:29;2.38;;;2.17;;